Time;durP1;ratioP1;P1;durP2;ratioP2;P2;SDS_P1;SDS_P2;PMS_P1;PMS_P2;Temp;Humidity;BMP_temperature;BMP_pressure;BME280_temperature;BME280_humidity;BME280_pressure;Samples;Min_cycle;Max_cycle;Signal;HPM_P1;HPM_P2
2022/03/22 00:00:37;;;;;;;11.73;9.82;;;21.70;61.60;;;;;;6130559;28;89077;-67
2022/03/22 00:03:46;;;;;;;12.35;10.82;;;21.70;61.70;;;;;;6114362;28;90105;-67
2022/03/22 00:06:48;;;;;;;12.60;10.43;;;21.70;61.60;;;;;;6129004;28;89121;-67
2022/03/22 00:09:50;;;;;;;12.23;10.25;;;21.70;61.60;;;;;;6133665;28;89051;-67
2022/03/22 00:12:52;;;;;;;11.88;10.70;;;21.70;61.70;;;;;;6129589;28;89474;-67
2022/03/22 00:15:55;;;;;;;12.43;11.18;;;21.70;61.60;;;;;;6134396;28;89360;-67
2022/03/22 00:18:59;;;;;;;12.10;10.90;;;21.70;61.70;;;;;;6130719;28;89398;-67
2022/03/22 00:22:02;;;;;;;12.88;11.52;;;21.70;61.70;;;;;;6122327;28;88997;-66
2022/03/22 00:25:05;;;;;;;12.90;11.60;;;21.60;61.60;;;;;;6134708;28;88623;-67
2022/03/22 00:28:07;;;;;;;12.35;10.95;;;21.60;61.60;;;;;;6120437;28;88978;-67
2022/03/22 00:31:09;;;;;;;12.32;11.13;;;21.60;61.80;;;;;;6132591;28;89122;-67
2022/03/22 00:34:13;;;;;;;12.20;11.00;;;21.60;61.70;;;;;;6131280;28;89995;-67
2022/03/22 00:37:17;;;;;;;12.40;11.10;;;21.60;61.70;;;;;;6132946;28;89014;-67
2022/03/22 00:40:19;;;;;;;12.60;11.07;;;21.60;61.70;;;;;;6128610;28;89191;-67
2022/03/22 00:43:22;;;;;;;13.20;11.90;;;21.60;61.80;;;;;;6114123;28;89008;-67
2022/03/22 00:46:25;;;;;;;12.82;11.60;;;21.60;61.70;;;;;;6132550;28;89581;-67
2022/03/22 00:49:28;;;;;;;13.18;11.88;;;21.60;61.70;;;;;;6127231;28;88279;-66
2022/03/22 00:52:30;;;;;;;13.00;11.70;;;21.60;61.70;;;;;;6133210;28;89022;-67
2022/03/22 00:55:33;;;;;;;13.43;11.77;;;21.60;61.60;;;;;;6121920;28;88352;-67
2022/03/22 00:58:35;;;;;;;13.30;12.00;;;21.60;61.60;;;;;;6131956;28;88755;-67
2022/03/22 01:01:37;;;;;;;13.82;12.35;;;21.60;61.60;;;;;;6124727;28;89035;-66
2022/03/22 01:04:40;;;;;;;13.43;12.10;;;21.60;61.60;;;;;;6131965;28;90105;-67
2022/03/22 01:07:43;;;;;;;13.23;11.93;;;21.60;61.60;;;;;;6133332;28;89127;-67
2022/03/22 01:10:52;;;;;;;13.88;12.50;;;21.50;61.60;;;;;;6132177;28;89031;-67
2022/03/22 01:13:54;;;;;;;12.90;11.68;;;21.60;61.70;;;;;;6117210;28;87992;-67
2022/03/22 01:16:57;;;;;;;13.15;11.82;;;21.50;61.60;;;;;;6133192;28;89007;-67
2022/03/22 01:20:01;;;;;;;12.75;11.55;;;21.50;61.60;;;;;;6131407;28;89477;-67
2022/03/22 01:23:05;;;;;;;13.48;12.18;;;21.50;61.60;;;;;;6119436;28;89240;-66
2022/03/22 01:26:07;;;;;;;13.45;12.15;;;21.50;61.70;;;;;;6116212;28;88523;-67
2022/03/22 01:29:10;;;;;;;13.20;11.90;;;21.50;61.60;;;;;;6124418;28;89275;-67
2022/03/22 01:32:12;;;;;;;13.20;11.82;;;21.50;61.80;;;;;;6128907;28;89256;-67
2022/03/22 01:35:16;;;;;;;13.30;12.00;;;21.50;61.70;;;;;;6130583;28;90055;-66
2022/03/22 01:38:18;;;;;;;13.27;11.95;;;21.50;61.80;;;;;;6132254;28;87775;-67
2022/03/22 01:41:20;;;;;;;12.52;11.23;;;21.40;61.70;;;;;;6122973;28;87810;-68
2022/03/22 01:44:22;;;;;;;12.90;11.68;;;21.40;61.70;;;;;;6131063;28;89081;-67
2022/03/22 01:47:24;;;;;;;12.98;11.68;;;21.40;61.70;;;;;;6128946;28;89355;-67
2022/03/22 01:50:29;;;;;;;12.88;11.52;;;21.50;61.80;;;;;;6123422;28;89118;-67
2022/03/22 01:53:32;;;;;;;12.68;11.43;;;21.50;61.80;;;;;;6127043;28;87197;-67
2022/03/22 01:56:34;;;;;;;12.70;11.40;;;21.40;61.80;;;;;;6126462;28;88283;-67
2022/03/22 01:59:36;;;;;;;12.13;11.00;;;21.40;61.80;;;;;;6119488;28;89576;-67
2022/03/22 02:06:00;;;;;;;12.05;10.75;;;21.40;61.70;;;;;;6127354;28;88662;-67
2022/03/22 02:09:04;;;;;;;12.25;11.05;;;21.40;61.70;;;;;;6132567;28;90876;-67
2022/03/22 02:12:07;;;;;;;11.45;10.35;;;21.40;61.60;;;;;;6131103;28;89048;-66
2022/03/22 02:15:09;;;;;;;12.93;11.63;;;21.40;61.80;;;;;;6131577;28;89073;-67
2022/03/22 02:18:11;;;;;;;11.73;10.63;;;21.40;61.80;;;;;;6131231;28;87875;-67
2022/03/22 02:21:18;;;;;;;11.43;10.32;;;21.40;61.80;;;;;;6130940;28;89534;-68
2022/03/22 02:24:21;;;;;;;11.75;10.65;;;21.40;61.80;;;;;;6130319;28;88917;-67
2022/03/22 02:27:25;;;;;;;11.50;10.40;;;21.40;61.80;;;;;;6128904;28;88344;-66
2022/03/22 02:30:27;;;;;;;11.50;10.40;;;21.30;61.70;;;;;;6128127;28;89140;-67
2022/03/22 02:33:29;;;;;;;11.68;10.57;;;21.40;61.80;;;;;;6131564;28;89266;-67
2022/03/22 02:36:31;;;;;;;11.52;10.43;;;21.40;61.80;;;;;;6122814;28;90075;-67
2022/03/22 02:39:34;;;;;;;11.25;10.20;;;21.40;62.00;;;;;;6133998;28;89221;-67
2022/03/22 02:42:36;;;;;;;11.10;10.10;;;21.30;61.80;;;;;;6135474;28;89424;-67
2022/03/22 02:45:38;;;;;;;10.63;9.55;;;21.30;61.80;;;;;;6123575;28;89593;-66
2022/03/22 02:48:40;;;;;;;10.98;9.88;;;21.30;61.80;;;;;;6134340;28;89145;-67
2022/03/22 02:51:42;;;;;;;10.70;9.60;;;21.30;61.90;;;;;;6134827;28;89113;-67
2022/03/22 02:54:46;;;;;;;10.80;9.25;;;21.30;61.90;;;;;;6135902;28;89290;-67
2022/03/22 02:57:49;;;;;;;10.38;9.38;;;21.30;61.90;;;;;;6135798;28;88372;-67
2022/03/22 03:00:51;;;;;;;10.75;9.65;;;21.30;61.90;;;;;;6135163;28;89305;-67
2022/03/22 03:03:53;;;;;;;9.73;8.77;;;21.30;61.80;;;;;;6136977;28;89298;-67
2022/03/22 03:06:55;;;;;;;10.30;9.30;;;21.30;61.70;;;;;;6129955;28;90324;-67
2022/03/22 03:09:59;;;;;;;10.00;9.00;;;21.30;61.70;;;;;;6135462;28;89065;-67
2022/03/22 03:13:02;;;;;;;10.00;8.88;;;21.30;61.70;;;;;;6134365;28;89104;-67
2022/03/22 03:16:04;;;;;;;10.43;9.43;;;21.30;61.80;;;;;;6137138;28;89406;-67
2022/03/22 03:19:06;;;;;;;10.07;9.10;;;21.30;61.70;;;;;;6123469;28;87764;-67
2022/03/22 03:22:27;;;;;;;9.95;8.98;;;21.30;61.80;;;;;;6134106;28;89104;-67
2022/03/22 03:25:31;;;;;;;9.65;8.73;;;21.30;61.70;;;;;;6135995;28;87169;-67
2022/03/22 03:28:33;;;;;;;9.45;8.55;;;21.30;61.70;;;;;;6134828;28;88490;-67
2022/03/22 03:31:35;;;;;;;9.35;8.45;;;21.30;61.80;;;;;;6127197;28;89302;-67
2022/03/22 03:34:37;;;;;;;9.23;8.32;;;21.20;61.80;;;;;;6125748;28;89302;-67
2022/03/22 03:37:42;;;;;;;9.50;8.60;;;21.30;61.90;;;;;;6135706;28;89971;-67
2022/03/22 03:47:03;;;;;;;9.10;8.20;;;21.20;61.90;;;;;;6112594;28;87099;-67
2022/03/22 03:47:26;;;;;;;8.57;7.80;;;21.20;61.90;;;;;;6132710;28;88946;-67
2022/03/22 03:50:28;;;;;;;8.90;7.97;;;21.20;61.90;;;;;;6134381;28;87767;-67
2022/03/22 03:53:30;;;;;;;8.48;7.68;;;21.20;61.90;;;;;;6136523;28;89157;-67
2022/03/22 03:56:34;;;;;;;8.43;7.63;;;21.20;61.90;;;;;;6134130;28;87962;-67
2022/03/22 03:59:36;;;;;;;8.52;7.72;;;21.20;61.90;;;;;;6135871;28;88709;-67
2022/03/22 04:02:40;;;;;;;8.60;7.80;;;21.20;61.80;;;;;;6134288;28;89391;-67
2022/03/22 04:05:43;;;;;;;8.48;7.68;;;21.20;61.90;;;;;;6132005;28;89114;-66
2022/03/22 04:08:45;;;;;;;9.27;7.60;;;21.20;61.90;;;;;;6128887;28;90110;-67
2022/03/22 04:11:49;;;;;;;8.55;7.72;;;21.20;61.80;;;;;;6135330;28;89332;-67
2022/03/22 04:14:53;;;;;;;8.52;7.53;;;21.20;61.70;;;;;;6134922;28;89570;-67
2022/03/22 04:17:56;;;;;;;8.40;7.57;;;21.20;61.70;;;;;;6135084;28;89212;-67
2022/03/22 04:20:59;;;;;;;7.63;6.90;;;21.20;61.70;;;;;;6135732;28;89040;-67
2022/03/22 04:24:01;;;;;;;8.20;7.40;;;21.20;61.70;;;;;;6134737;28;89269;-66
2022/03/22 04:33:44;;;;;;;7.55;6.85;;;21.20;61.40;;;;;;6130122;28;87156;-67
2022/03/22 04:36:55;;;;;;;8.00;7.20;;;21.20;61.40;;;;;;6132329;28;89056;-67
2022/03/22 04:39:56;;;;;;;7.55;6.47;;;21.20;61.30;;;;;;6133189;28;90157;-67
2022/03/22 04:43:00;;;;;;;7.85;6.80;;;21.20;61.30;;;;;;6133876;28;89027;-67
2022/03/22 04:46:02;;;;;;;7.45;6.75;;;21.30;61.30;;;;;;6134274;28;89033;-67
2022/03/22 04:49:04;;;;;;;6.80;6.10;;;21.30;61.30;;;;;;6130630;28;89094;-67
2022/03/22 04:58:48;;;;;;;7.10;6.07;;;21.30;61.20;;;;;;6121303;28;87431;-67
2022/03/22 05:02:09;;;;;;;6.80;6.20;;;21.40;61.30;;;;;;6136127;28;88090;-67
2022/03/22 05:05:11;;;;;;;6.43;5.82;;;21.40;61.10;;;;;;6131154;28;89075;-67
2022/03/22 05:08:13;;;;;;;6.80;6.10;;;21.40;61.10;;;;;;6128479;28;89135;-67
2022/03/22 05:11:15;;;;;;;6.20;5.60;;;21.50;61.10;;;;;;6121027;28;90367;-67
2022/03/22 05:14:18;;;;;;;6.63;6.03;;;21.40;61.00;;;;;;6119894;28;89074;-67
2022/03/22 05:17:23;;;;;;;7.05;5.82;;;21.50;61.00;;;;;;6127764;28;89138;-67
2022/03/22 05:20:25;;;;;;;5.80;5.30;;;21.50;60.90;;;;;;6134438;28;89146;-67
2022/03/22 05:23:27;;;;;;;6.57;5.70;;;21.50;60.80;;;;;;6134070;28;89161;-66
2022/03/22 05:26:31;;;;;;;6.28;5.68;;;21.50;60.80;;;;;;6132147;28;89387;-67
2022/03/22 05:29:35;;;;;;;7.00;5.70;;;21.50;60.70;;;;;;6132432;28;88979;-66
2022/03/22 05:32:37;;;;;;;5.80;5.10;;;21.60;60.70;;;;;;6120748;28;88220;-67
2022/03/22 05:35:39;;;;;;;6.25;5.63;;;21.60;61.50;;;;;;6131956;28;89176;-66
2022/03/22 05:38:41;;;;;;;6.05;5.45;;;21.60;60.60;;;;;;6132828;28;89039;-67
2022/03/22 05:41:44;;;;;;;5.80;5.20;;;21.60;60.50;;;;;;6131716;28;90624;-67
2022/03/22 05:44:49;;;;;;;6.25;5.65;;;21.60;60.40;;;;;;6129719;28;89026;-67
2022/03/22 05:47:52;;;;;;;5.75;4.88;;;21.70;60.50;;;;;;6112238;28;89392;-67
2022/03/22 05:50:54;;;;;;;5.75;5.15;;;21.70;60.50;;;;;;6109065;28;89042;-67
2022/03/22 05:53:56;;;;;;;6.30;5.28;;;21.70;60.40;;;;;;6122539;28;89115;-67
2022/03/22 05:56:58;;;;;;;5.57;5.07;;;21.80;60.50;;;;;;6127988;28;88880;-67
2022/03/22 06:00:01;;;;;;;5.45;4.95;;;21.80;60.40;;;;;;6130510;28;89002;-67
2022/03/22 06:03:03;;;;;;;5.90;5.40;;;21.70;60.30;;;;;;6121696;28;88907;-67
2022/03/22 06:06:05;;;;;;;5.35;4.85;;;21.80;60.30;;;;;;6122571;28;89007;-67
2022/03/22 06:09:07;;;;;;;5.75;5.10;;;21.80;60.40;;;;;;6125216;28;88036;-67
2022/03/22 06:12:10;;;;;;;5.68;4.80;;;21.80;60.40;;;;;;6123975;28;89009;-67
2022/03/22 06:15:16;;;;;;;5.25;4.70;;;21.80;60.40;;;;;;6122043;28;89034;-67
2022/03/22 06:18:18;;;;;;;5.60;5.05;;;21.90;60.40;;;;;;6135978;28;87732;-67
2022/03/22 06:21:20;;;;;;;4.80;4.40;;;21.90;60.40;;;;;;6117642;28;87783;-67
2022/03/22 06:24:22;;;;;;;5.13;4.60;;;21.90;60.40;;;;;;6132000;28;89112;-67
2022/03/22 06:27:24;;;;;;;5.70;5.20;;;21.90;60.40;;;;;;6124172;28;89120;-67
2022/03/22 06:30:28;;;;;;;5.38;4.75;;;21.90;60.30;;;;;;6129791;28;89093;-67
2022/03/22 06:33:30;;;;;;;5.65;4.90;;;21.90;60.40;;;;;;6126666;28;88671;-67
2022/03/22 06:36:32;;;;;;;5.50;4.70;;;21.90;60.30;;;;;;6126750;28;89039;-67
2022/03/22 06:39:34;;;;;;;5.13;4.40;;;22.00;60.50;;;;;;6112976;28;89048;-67
2022/03/22 06:42:37;;;;;;;5.38;4.85;;;22.00;60.40;;;;;;6136343;28;90025;-67
2022/03/22 06:45:41;;;;;;;4.70;4.30;;;22.00;60.40;;;;;;6123582;28;89360;-67
2022/03/22 06:48:43;;;;;;;4.80;4.40;;;22.00;60.30;;;;;;6123554;28;89076;-67
2022/03/22 06:51:45;;;;;;;5.10;4.60;;;22.00;60.30;;;;;;6136061;28;89248;-67
2022/03/22 06:54:47;;;;;;;5.50;4.57;;;22.10;60.40;;;;;;6135935;28;89200;-67
2022/03/22 06:57:49;;;;;;;5.00;4.50;;;22.00;60.30;;;;;;6135158;28;89094;-67
2022/03/22 07:00:55;;;;;;;5.60;4.43;;;22.10;60.30;;;;;;6135094;28;89082;-66
2022/03/22 07:03:57;;;;;;;5.18;4.68;;;22.10;60.30;;;;;;6131586;28;87110;-67
2022/03/22 07:06:59;;;;;;;5.45;4.55;;;22.10;60.30;;;;;;6126582;28;88030;-67
2022/03/22 07:10:01;;;;;;;5.13;4.43;;;22.10;60.30;;;;;;6134584;28;89355;-67
2022/03/22 07:13:05;;;;;;;4.57;4.18;;;22.10;60.30;;;;;;6135860;28;90233;-67
2022/03/22 07:16:09;;;;;;;5.43;4.30;;;22.10;60.30;;;;;;6134452;28;89055;-66
2022/03/22 07:19:11;;;;;;;5.50;4.35;;;22.10;60.30;;;;;;6135787;28;88403;-67
2022/03/22 07:22:13;;;;;;;4.38;3.97;;;22.20;60.30;;;;;;6133873;28;89074;-67
2022/03/22 07:25:15;;;;;;;5.35;4.50;;;22.10;60.20;;;;;;6128014;28;88958;-67
2022/03/22 07:28:17;;;;;;;4.90;4.50;;;22.20;60.30;;;;;;6118443;28;89123;-67
2022/03/22 07:31:20;;;;;;;5.57;4.63;;;22.20;60.30;;;;;;6122003;28;89013;-67
2022/03/22 07:34:23;;;;;;;6.22;4.53;;;22.20;60.30;;;;;;6123173;28;88235;-67
2022/03/22 07:37:25;;;;;;;4.93;4.38;;;22.20;60.30;;;;;;6134949;28;88991;-67
2022/03/22 07:40:27;;;;;;;4.57;4.13;;;22.20;60.30;;;;;;6123567;28;88976;-67
2022/03/22 07:43:30;;;;;;;5.13;4.63;;;22.20;60.30;;;;;;6134740;28;90023;-67
2022/03/22 07:46:34;;;;;;;4.50;4.10;;;22.20;60.40;;;;;;6134710;28;89301;-67
2022/03/22 07:53:01;;;;;;;4.63;4.22;;;22.20;60.40;;;;;;6121206;28;87318;-67
2022/03/22 07:56:03;;;;;;;4.60;4.20;;;22.20;61.30;;;;;;6120419;28;89220;-67
2022/03/22 07:59:05;;;;;;;4.55;4.15;;;22.20;60.40;;;;;;6134841;28;89013;-67
2022/03/22 08:02:09;;;;;;;4.68;4.28;;;22.20;60.50;;;;;;6124039;28;89097;-66
2022/03/22 08:05:11;;;;;;;4.50;4.10;;;22.10;60.40;;;;;;6119250;28;87225;-67
2022/03/22 08:08:13;;;;;;;4.57;4.18;;;22.20;60.50;;;;;;6120640;28;89344;-67
2022/03/22 08:11:15;;;;;;;4.43;4.03;;;22.20;60.50;;;;;;6133515;28;89032;-66
2022/03/22 08:14:19;;;;;;;4.40;4.00;;;22.20;60.50;;;;;;6133004;28;89989;-66
2022/03/22 08:17:23;;;;;;;4.40;4.00;;;22.10;60.60;;;;;;6128167;28;89027;-66
2022/03/22 08:20:44;;;;;;;4.45;3.72;;;22.10;60.50;;;;;;6121961;28;87992;-68
2022/03/22 08:23:46;;;;;;;4.43;4.03;;;22.20;60.60;;;;;;6117050;28;89094;-67
2022/03/22 08:26:48;;;;;;;3.95;3.65;;;22.20;60.60;;;;;;6123531;28;87826;-67
2022/03/22 08:29:51;;;;;;;3.90;3.60;;;22.20;60.60;;;;;;6130531;28;89020;-67
2022/03/22 08:32:57;;;;;;;4.20;3.80;;;22.20;60.60;;;;;;6125062;28;88881;-67
2022/03/22 08:35:59;;;;;;;4.30;3.63;;;22.20;60.60;;;;;;6122303;28;88493;-66
2022/03/22 08:39:01;;;;;;;4.35;3.95;;;22.20;60.60;;;;;;6123593;28;88313;-67
2022/03/22 08:42:03;;;;;;;4.22;3.83;;;22.30;60.70;;;;;;6122528;28;89112;-67
2022/03/22 08:45:07;;;;;;;4.03;3.67;;;22.20;60.70;;;;;;6129540;28;89805;-67
2022/03/22 08:48:12;;;;;;;4.43;4.03;;;22.20;60.70;;;;;;6134432;28;89128;-66
2022/03/22 08:51:16;;;;;;;4.10;3.70;;;22.20;60.70;;;;;;6133011;28;89414;-67
2022/03/22 08:54:19;;;;;;;4.00;3.60;;;22.20;60.70;;;;;;6130507;28;88459;-67
2022/03/22 08:57:22;;;;;;;3.80;3.47;;;22.20;60.70;;;;;;6113542;28;88681;-67
2022/03/22 09:00:25;;;;;;;3.95;3.65;;;22.30;60.80;;;;;;6120106;28;89299;-67
2022/03/22 09:03:31;;;;;;;3.88;3.53;;;22.30;60.80;;;;;;6131611;28;89398;-67
2022/03/22 09:06:32;;;;;;;3.60;3.30;;;22.30;60.80;;;;;;6108770;28;88416;-67
2022/03/22 09:09:34;;;;;;;3.90;3.47;;;22.30;60.80;;;;;;6121265;28;89440;-67
2022/03/22 09:12:36;;;;;;;5.20;3.67;;;22.20;60.80;;;;;;6132652;28;89059;-67
2022/03/22 09:15:39;;;;;;;3.90;3.60;;;22.30;60.80;;;;;;6120678;28;90266;-66
2022/03/22 09:18:43;;;;;;;3.80;3.50;;;22.30;60.80;;;;;;6131765;28;89391;-67
2022/03/22 09:21:45;;;;;;;3.95;3.55;;;22.30;60.80;;;;;;6121410;28;89267;-67
2022/03/22 09:24:47;;;;;;;3.70;3.40;;;22.30;60.80;;;;;;6132849;28;89094;-67
2022/03/22 09:27:50;;;;;;;3.80;3.50;;;22.30;60.80;;;;;;6132207;28;89153;-66
2022/03/22 09:30:52;;;;;;;4.00;3.60;;;22.30;60.80;;;;;;6119069;28;88155;-66
2022/03/22 09:33:57;;;;;;;3.60;3.30;;;22.40;60.80;;;;;;6128917;28;89087;-67
2022/03/22 09:36:59;;;;;;;3.95;3.55;;;22.40;60.90;;;;;;6126592;28;87234;-66
2022/03/22 09:40:01;;;;;;;4.00;3.60;;;22.40;60.80;;;;;;6127002;28;89149;-67
2022/03/22 09:43:03;;;;;;;3.30;3.10;;;22.40;60.80;;;;;;6127560;28;88324;-66
2022/03/22 09:46:09;;;;;;;4.00;3.63;;;22.40;60.80;;;;;;6122783;28;89983;-66
2022/03/22 09:49:12;;;;;;;3.83;3.53;;;22.40;60.80;;;;;;6130800;28;90117;-66
2022/03/22 09:52:16;;;;;;;4.45;3.70;;;22.30;60.80;;;;;;6119507;28;89116;-66
2022/03/22 09:55:18;;;;;;;3.83;3.40;;;22.40;60.90;;;;;;6119426;28;87998;-66
2022/03/22 09:58:20;;;;;;;3.97;3.58;;;22.40;60.90;;;;;;6109951;28;89123;-66
2022/03/22 10:01:22;;;;;;;3.60;3.30;;;22.40;60.90;;;;;;6123624;28;88190;-66
2022/03/22 10:04:35;;;;;;;4.25;3.85;;;22.40;60.90;;;;;;6132662;28;89368;-66
2022/03/22 10:07:37;;;;;;;3.70;3.40;;;22.40;61.00;;;;;;6128726;28;88412;-67
2022/03/22 10:10:53;;;;;;;3.67;3.38;;;22.40;61.00;;;;;;6120293;28;89449;-67
2022/03/22 10:13:57;;;;;;;3.88;3.55;;;22.40;61.00;;;;;;6127062;28;89422;-66
2022/03/22 10:16:59;;;;;;;3.88;3.58;;;22.40;61.00;;;;;;6119443;28;90462;-66
2022/03/22 10:20:05;;;;;;;3.70;3.40;;;22.40;61.00;;;;;;6114868;28;88996;-66
2022/03/22 10:23:09;;;;;;;3.67;3.38;;;22.40;61.80;;;;;;6112602;28;88841;-66
2022/03/22 10:26:11;;;;;;;3.67;3.33;;;22.40;61.00;;;;;;6118138;28;89156;-67
2022/03/22 10:29:14;;;;;;;3.40;3.10;;;22.40;60.90;;;;;;6119343;28;88925;-66
2022/03/22 10:32:16;;;;;;;3.88;3.47;;;22.40;60.90;;;;;;6119725;28;89120;-66
2022/03/22 10:35:22;;;;;;;3.80;3.40;;;22.40;61.00;;;;;;6125554;28;89219;-66
2022/03/22 10:38:24;;;;;;;3.63;3.30;;;22.40;61.00;;;;;;6128553;28;87036;-66
2022/03/22 10:41:30;;;;;;;3.72;3.10;;;22.40;61.00;;;;;;6128452;28;89070;-66
2022/03/22 10:44:36;;;;;;;3.67;3.38;;;22.40;61.00;;;;;;6125191;28;89359;-66
2022/03/22 10:47:38;;;;;;;3.50;3.20;;;22.40;61.00;;;;;;6117487;28;90260;-66
2022/03/22 10:50:41;;;;;;;3.65;3.35;;;22.50;61.00;;;;;;6120204;28;89452;-67
2022/03/22 10:53:43;;;;;;;3.97;3.28;;;22.50;61.00;;;;;;6135799;28;89010;-66
2022/03/22 10:56:48;;;;;;;3.50;3.20;;;22.50;61.00;;;;;;6124017;28;89082;-66
2022/03/22 10:59:52;;;;;;;3.42;3.10;;;22.40;60.90;;;;;;6125630;28;89208;-66
2022/03/22 11:02:55;;;;;;;3.45;3.15;;;22.50;61.00;;;;;;6134512;28;89152;-66
2022/03/22 11:06:03;;;;;;;3.20;2.90;;;22.50;61.00;;;;;;6133395;28;88624;-65
2022/03/22 11:09:05;;;;;;;3.40;3.13;;;22.50;61.00;;;;;;6135147;28;88424;-66
2022/03/22 11:12:08;;;;;;;3.40;3.10;;;22.40;61.80;;;;;;6136832;28;89147;-66
2022/03/22 11:15:11;;;;;;;3.38;3.08;;;22.50;61.00;;;;;;6136096;28;89544;-66
2022/03/22 11:18:15;;;;;;;3.50;3.20;;;22.50;61.00;;;;;;6122785;28;88965;-66
2022/03/22 11:21:20;;;;;;;4.28;3.33;;;22.50;61.00;;;;;;6122674;28;89046;-66
2022/03/22 11:24:24;;;;;;;3.50;3.20;;;22.50;61.00;;;;;;6135181;28;89107;-66
2022/03/22 11:27:29;;;;;;;3.55;2.97;;;22.50;61.00;;;;;;6112243;28;88293;-66
2022/03/22 11:30:32;;;;;;;3.20;2.90;;;22.50;61.00;;;;;;6133575;28;89142;-66
2022/03/22 11:36:59;;;;;;;3.45;3.15;;;22.50;61.00;;;;;;6131194;28;87191;-66
2022/03/22 11:43:20;;;;;;;3.08;2.70;;;22.50;61.00;;;;;;6112289;28;87118;-66
2022/03/22 11:46:32;;;;;;;3.40;3.10;;;22.50;61.00;;;;;;6128603;28;89377;-66
2022/03/22 11:50:10;;;;;;;3.50;3.20;;;22.50;61.00;;;;;;6128863;28;90787;-66
2022/03/22 11:53:19;;;;;;;3.33;3.03;;;22.50;61.00;;;;;;6132355;28;89076;-66
2022/03/22 11:56:28;;;;;;;3.30;3.00;;;22.50;61.00;;;;;;6133768;28;87806;-66
2022/03/22 11:59:39;;;;;;;3.15;2.85;;;22.50;61.00;;;;;;6130029;28;89030;-66
2022/03/22 12:02:44;;;;;;;3.00;2.80;;;22.60;61.00;;;;;;6129829;28;87806;-66
2022/03/22 12:05:46;;;;;;;3.10;2.80;;;22.50;60.90;;;;;;6132636;28;89060;-66
2022/03/22 12:08:50;;;;;;;3.17;2.88;;;22.60;61.00;;;;;;6133957;28;89062;-66
2022/03/22 12:11:53;;;;;;;3.20;2.90;;;22.50;60.90;;;;;;6134759;28;88194;-66
2022/03/22 12:14:57;;;;;;;2.85;2.65;;;22.50;61.00;;;;;;6135289;28;87095;-66
2022/03/22 12:17:59;;;;;;;3.03;2.72;;;22.50;60.90;;;;;;6120490;28;89167;-66
2022/03/22 12:21:02;;;;;;;2.85;2.65;;;22.50;60.90;;;;;;6111219;28;90007;-66
2022/03/22 12:24:07;;;;;;;3.20;2.90;;;22.50;60.90;;;;;;6111546;28;88882;-66
2022/03/22 12:27:11;;;;;;;3.13;2.88;;;22.50;60.80;;;;;;6121153;28;88035;-67
2022/03/22 12:30:13;;;;;;;3.03;2.83;;;22.50;60.80;;;;;;6131597;28;89068;-66
2022/03/22 12:33:18;;;;;;;3.28;2.97;;;22.50;60.80;;;;;;6126501;28;88817;-66
2022/03/22 12:36:22;;;;;;;2.80;2.60;;;22.50;60.80;;;;;;6134249;28;89524;-66
2022/03/22 12:39:25;;;;;;;3.20;2.90;;;22.60;60.80;;;;;;6135545;28;87799;-66
2022/03/22 12:42:29;;;;;;;3.42;2.60;;;22.50;60.80;;;;;;6122605;28;88711;-66
2022/03/22 12:45:32;;;;;;;2.80;2.60;;;22.50;60.70;;;;;;6122064;28;89164;-66
2022/03/22 12:48:36;;;;;;;3.00;2.80;;;22.50;60.60;;;;;;6134457;28;87411;-66
2022/03/22 12:51:38;;;;;;;4.05;3.00;;;22.50;60.60;;;;;;6119127;28;90331;-67
2022/03/22 12:54:43;;;;;;;2.72;2.53;;;22.50;60.60;;;;;;6121347;28;89098;-66
2022/03/22 12:57:48;;;;;;;2.70;2.50;;;22.50;60.60;;;;;;6132739;28;88981;-66
2022/03/22 13:00:50;;;;;;;3.20;2.90;;;22.50;60.60;;;;;;6118906;28;88964;-66
2022/03/22 13:03:52;;;;;;;2.75;2.55;;;22.60;60.60;;;;;;6122363;28;89131;-66
2022/03/22 13:06:59;;;;;;;3.03;2.78;;;22.60;60.60;;;;;;6112847;28;89065;-66
2022/03/22 13:13:23;;;;;;;2.92;2.72;;;22.50;60.50;;;;;;6135581;28;87093;-66
2022/03/22 13:16:27;;;;;;;2.83;2.63;;;22.50;60.50;;;;;;6133512;28;89084;-66
2022/03/22 13:19:31;;;;;;;2.72;2.53;;;22.50;60.50;;;;;;6119401;28;89005;-66
2022/03/22 13:22:34;;;;;;;2.72;2.47;;;22.50;60.50;;;;;;6122820;28;90226;-66
2022/03/22 13:25:39;;;;;;;2.95;2.75;;;22.50;60.50;;;;;;6119543;28;89116;-66
2022/03/22 13:28:41;;;;;;;2.95;2.65;;;22.50;60.50;;;;;;6120535;28;89066;-66
2022/03/22 13:31:57;;;;;;;3.13;2.88;;;22.50;60.50;;;;;;6118921;28;89183;-66
2022/03/22 13:35:02;;;;;;;3.00;2.70;;;22.50;60.40;;;;;;6119057;28;89063;-66
2022/03/22 13:38:07;;;;;;;2.90;2.70;;;22.50;60.30;;;;;;6133761;28;89170;-66
2022/03/22 13:41:11;;;;;;;2.90;2.70;;;22.50;60.30;;;;;;6121355;28;89164;-66
2022/03/22 13:44:13;;;;;;;2.60;2.40;;;22.50;60.30;;;;;;6120792;28;88579;-66
2022/03/22 13:47:34;;;;;;;2.63;2.42;;;22.50;60.30;;;;;;6120247;28;89121;-67
2022/03/22 13:50:37;;;;;;;3.33;2.83;;;22.50;60.30;;;;;;6121719;28;89086;-66
2022/03/22 13:53:39;;;;;;;2.67;2.47;;;22.50;60.20;;;;;;6119228;28;90089;-66
2022/03/22 13:56:42;;;;;;;3.35;2.50;;;22.50;60.10;;;;;;6133268;28;89198;-66
2022/03/22 13:59:44;;;;;;;3.55;2.50;;;22.50;60.10;;;;;;6114588;28;88441;-66
2022/03/22 14:02:47;;;;;;;2.92;2.72;;;22.50;60.10;;;;;;6128997;28;88261;-66
2022/03/22 14:05:50;;;;;;;2.60;2.40;;;22.50;60.10;;;;;;6124580;28;87976;-66
2022/03/22 14:08:52;;;;;;;2.83;2.60;;;22.50;60.10;;;;;;6114889;28;89195;-66
2022/03/22 14:11:55;;;;;;;2.70;2.50;;;22.50;60.10;;;;;;6119199;28;89149;-66
2022/03/22 14:14:57;;;;;;;2.90;2.60;;;22.50;60.10;;;;;;6130752;28;88432;-66
2022/03/22 14:17:59;;;;;;;2.97;2.78;;;22.50;60.10;;;;;;6120142;28;89185;-66
2022/03/22 14:21:02;;;;;;;3.45;2.80;;;22.50;60.10;;;;;;6133090;28;89331;-67
2022/03/22 14:24:05;;;;;;;2.97;2.70;;;22.50;60.10;;;;;;6119945;28;90045;-66
2022/03/22 14:27:08;;;;;;;2.60;2.40;;;22.50;60.10;;;;;;6134935;28;89040;-66
2022/03/22 14:30:14;;;;;;;2.47;2.28;;;22.50;60.10;;;;;;6133187;28;89102;-66
2022/03/22 14:33:17;;;;;;;2.72;2.53;;;22.50;60.10;;;;;;6115000;28;89012;-67
2022/03/22 14:36:19;;;;;;;2.55;2.35;;;22.50;60.10;;;;;;6137136;28;87961;-66
2022/03/22 14:39:21;;;;;;;2.80;2.60;;;22.50;60.10;;;;;;6136015;28;89117;-66
2022/03/22 14:42:25;;;;;;;2.80;2.60;;;22.50;60.20;;;;;;6123486;28;89133;-66
2022/03/22 14:45:28;;;;;;;2.80;2.60;;;22.50;60.20;;;;;;6124650;28;88463;-66
2022/03/22 14:48:30;;;;;;;2.70;2.50;;;22.40;60.10;;;;;;6125735;28;89342;-66
2022/03/22 14:54:54;;;;;;;2.70;2.50;;;22.50;60.30;;;;;;6110748;28;88604;-66
2022/03/22 15:01:17;;;;;;;2.58;2.38;;;22.50;60.30;;;;;;6118666;28;87156;-66
2022/03/22 15:04:22;;;;;;;2.70;2.50;;;22.40;60.20;;;;;;6112603;28;89023;-67
2022/03/22 15:07:24;;;;;;;2.90;2.60;;;22.40;60.10;;;;;;6130063;28;89101;-67
2022/03/22 15:10:26;;;;;;;2.67;2.47;;;22.40;60.10;;;;;;6121722;28;89111;-67
2022/03/22 15:13:30;;;;;;;2.60;2.40;;;22.40;60.10;;;;;;6132298;28;89092;-67
2022/03/22 15:16:32;;;;;;;2.70;2.50;;;22.50;60.20;;;;;;6126620;28;88611;-67
2022/03/22 15:19:34;;;;;;;2.60;2.40;;;22.50;60.20;;;;;;6134753;28;89146;-66
2022/03/22 15:22:36;;;;;;;2.80;2.60;;;22.50;60.10;;;;;;6123948;28;86991;-66
2022/03/22 15:25:40;;;;;;;2.58;2.38;;;22.50;60.10;;;;;;6134118;28;89980;-66
2022/03/22 15:28:44;;;;;;;2.60;2.40;;;22.50;60.10;;;;;;6136552;28;89221;-66
2022/03/22 15:31:46;;;;;;;2.70;2.50;;;22.40;60.10;;;;;;6121280;28;89292;-67
2022/03/22 15:34:48;;;;;;;2.67;2.47;;;22.40;60.10;;;;;;6135593;28;89001;-67
2022/03/22 15:37:50;;;;;;;2.60;2.40;;;22.50;60.20;;;;;;6135375;28;87974;-67
2022/03/22 15:40:53;;;;;;;2.75;2.55;;;22.40;60.10;;;;;;6134448;28;89202;-67
2022/03/22 15:43:57;;;;;;;2.70;2.50;;;22.50;60.10;;;;;;6136457;28;89324;-67
2022/03/22 15:46:59;;;;;;;2.63;2.42;;;22.50;60.20;;;;;;6134829;28;88526;-67
2022/03/22 15:50:01;;;;;;;2.60;2.40;;;22.40;60.20;;;;;;6125052;28;89045;-67
2022/03/22 15:53:05;;;;;;;2.67;2.47;;;22.40;60.10;;;;;;6125469;28;88940;-67
2022/03/22 15:56:07;;;;;;;2.50;2.30;;;22.40;60.10;;;;;;6128064;28;90094;-67
2022/03/22 15:59:11;;;;;;;2.60;2.40;;;22.40;60.10;;;;;;6134814;28;89116;-67
2022/03/22 16:02:13;;;;;;;2.80;2.60;;;22.40;60.10;;;;;;6127151;28;89440;-67
2022/03/22 16:05:15;;;;;;;2.80;2.60;;;22.40;60.10;;;;;;6132737;28;89002;-67
2022/03/22 16:08:17;;;;;;;3.08;2.60;;;22.40;60.10;;;;;;6122243;28;89085;-67
2022/03/22 16:11:20;;;;;;;2.72;2.53;;;22.40;60.20;;;;;;6123194;28;89115;-67
2022/03/22 16:14:27;;;;;;;2.58;2.38;;;22.40;60.10;;;;;;6117028;28;89069;-67
2022/03/22 16:17:29;;;;;;;2.78;2.47;;;22.40;60.10;;;;;;6122970;28;88510;-66
2022/03/22 16:20:31;;;;;;;2.97;2.45;;;22.40;60.10;;;;;;6123188;28;89206;-66
2022/03/22 16:23:34;;;;;;;2.80;2.60;;;22.40;60.10;;;;;;6131961;28;89076;-66
2022/03/22 16:26:36;;;;;;;3.15;2.88;;;22.40;60.10;;;;;;6133620;28;90328;-67
2022/03/22 16:29:40;;;;;;;2.90;2.70;;;22.40;60.10;;;;;;6128033;28;89110;-66